createdAt,value
2019-02-27T00:01:16.766Z,6.00
2019-02-27T00:03:44.612Z,5.90
2019-02-27T00:06:15.865Z,5.90
2019-02-27T00:08:44.453Z,6.00
2019-02-27T00:11:13.484Z,6.00
2019-02-27T00:13:48.454Z,6.00
2019-02-27T00:16:17.581Z,6.00
2019-02-27T00:18:46.669Z,6.10
2019-02-27T00:21:23.588Z,6.10
2019-02-27T00:23:56.650Z,6.10
2019-02-27T00:26:24.320Z,6.10
2019-02-27T00:28:56.238Z,6.10
2019-02-27T00:31:26.129Z,6.00
2019-02-27T00:34:07.153Z,5.90
2019-02-27T00:36:38.036Z,5.90
2019-02-27T00:39:07.913Z,5.90
2019-02-27T00:41:37.901Z,5.90
2019-02-27T00:44:07.006Z,5.80
2019-02-27T00:46:35.936Z,5.80
2019-02-27T00:49:14.001Z,5.90
2019-02-27T00:51:46.001Z,5.80
2019-02-27T00:54:15.008Z,5.70
2019-02-27T00:56:47.074Z,5.70
2019-02-27T00:59:20.054Z,5.80
2019-02-27T01:01:50.103Z,5.80
2019-02-27T01:04:24.146Z,5.80
2019-02-27T01:06:58.190Z,5.90
2019-02-27T01:09:29.133Z,5.90
2019-02-27T01:12:13.151Z,5.90
2019-02-27T01:14:42.124Z,6.00
2019-02-27T01:17:13.057Z,6.00
2019-02-27T01:19:43.064Z,6.10
2019-02-27T01:22:13.506Z,6.10
2019-02-27T01:24:43.708Z,6.10
2019-02-27T01:27:12.741Z,6.20
2019-02-27T01:29:43.605Z,6.20
2019-02-27T01:32:14.585Z,6.20
2019-02-27T01:34:44.540Z,6.20
2019-02-27T01:37:35.850Z,6.20
2019-02-27T01:40:09.229Z,6.30
2019-02-27T01:42:47.350Z,6.30
2019-02-27T01:45:20.567Z,6.20
2019-02-27T01:47:47.997Z,6.20
2019-02-27T01:50:33.121Z,6.30
2019-02-27T01:53:02.177Z,6.20
2019-02-27T01:55:32.229Z,6.20
2019-02-27T01:58:12.406Z,6.20
2019-02-27T02:00:49.382Z,6.30
2019-02-27T02:03:18.490Z,6.30
2019-02-27T02:05:49.741Z,6.30
2019-02-27T02:08:18.795Z,6.30
2019-02-27T02:10:50.792Z,6.30
2019-02-27T02:13:53.156Z,6.30
2019-02-27T02:16:47.594Z,6.30
2019-02-27T02:19:42.469Z,6.30
2019-02-27T02:22:43.336Z,6.20
2019-02-27T02:25:34.504Z,6.30
2019-02-27T02:29:03.932Z,6.30
2019-02-27T02:31:43.318Z,6.20
2019-02-27T02:34:51.573Z,6.20
2019-02-27T02:38:12.414Z,6.10
2019-02-27T02:41:07.927Z,6.00
2019-02-27T02:44:13.814Z,5.90
2019-02-27T02:47:19.754Z,5.90
2019-02-27T02:50:07.335Z,5.80
2019-02-27T02:53:17.527Z,5.70
2019-02-27T02:56:24.888Z,5.70
2019-02-27T02:59:34.677Z,5.90
2019-02-27T03:02:47.810Z,6.00
2019-02-27T03:06:09.740Z,6.00
2019-02-27T03:08:55.000Z,6.10
2019-02-27T03:12:31.554Z,6.00
2019-02-27T03:15:16.902Z,6.00
2019-02-27T03:18:40.861Z,6.00
2019-02-27T03:21:20.965Z,6.00
2019-02-27T03:24:30.977Z,6.10
2019-02-27T03:27:09.880Z,6.10
2019-02-27T03:30:36.839Z,6.10
2019-02-27T03:33:45.901Z,6.10
2019-02-27T03:36:36.074Z,6.20
2019-02-27T03:39:55.134Z,6.10
2019-02-27T03:42:50.049Z,6.10
2019-02-27T03:45:54.479Z,5.90
2019-02-27T03:49:06.852Z,5.80
2019-02-27T03:52:38.905Z,5.80
2019-02-27T03:55:45.696Z,5.80
2019-02-27T03:58:52.771Z,5.70
2019-02-27T04:02:09.566Z,5.50
2019-02-27T04:04:54.761Z,5.50
2019-02-27T04:08:08.595Z,5.40
2019-02-27T04:10:51.683Z,5.40
2019-02-27T04:13:26.829Z,5.40
2019-02-27T04:15:53.673Z,5.40
2019-02-27T04:18:20.708Z,5.30
2019-02-27T04:20:50.694Z,5.30
2019-02-27T04:23:30.825Z,5.40
2019-02-27T04:26:05.914Z,5.50
2019-02-27T04:28:34.526Z,5.50
2019-02-27T04:31:03.583Z,5.50
2019-02-27T04:33:32.811Z,5.50
2019-02-27T04:36:13.474Z,5.50
2019-02-27T04:38:56.866Z,5.50
2019-02-27T04:41:29.291Z,5.60
2019-02-27T04:44:10.757Z,5.60
2019-02-27T04:46:39.795Z,5.70
2019-02-27T04:49:17.798Z,5.70
2019-02-27T04:51:50.594Z,5.70
2019-02-27T04:54:25.553Z,5.80
2019-02-27T04:56:55.038Z,5.80
2019-02-27T04:59:25.417Z,5.80
2019-02-27T05:01:54.453Z,5.80
2019-02-27T05:04:24.622Z,5.90
2019-02-27T05:06:56.998Z,5.80
2019-02-27T05:09:27.105Z,5.90
2019-02-27T05:11:56.149Z,5.90
2019-02-27T05:14:27.453Z,5.90
2019-02-27T05:16:55.786Z,6.00
2019-02-27T05:19:24.714Z,5.90
2019-02-27T05:21:53.640Z,5.90
2019-02-27T05:24:22.648Z,5.90
2019-02-27T05:26:51.573Z,6.00
2019-02-27T05:29:20.621Z,6.00
2019-02-27T05:31:50.179Z,6.00
2019-02-27T05:34:20.072Z,6.00
2019-02-27T05:36:48.997Z,5.90
2019-02-27T05:39:18.082Z,5.90
2019-02-27T05:41:47.138Z,5.90
2019-02-27T05:44:16.245Z,5.90
2019-02-27T05:46:45.127Z,5.90
2019-02-27T05:49:14.360Z,5.90
2019-02-27T05:51:43.208Z,5.90
2019-02-27T05:54:12.186Z,5.80
2019-02-27T05:56:41.155Z,5.80
2019-02-27T05:59:10.080Z,5.80
2019-02-27T06:01:39.155Z,5.80
2019-02-27T06:04:08.273Z,5.80
2019-02-27T06:06:37.621Z,5.80
2019-02-27T06:09:09.931Z,5.70
2019-02-27T06:11:38.308Z,5.70
2019-02-27T06:14:07.241Z,5.60
2019-02-27T06:16:37.608Z,5.50
2019-02-27T06:19:07.180Z,5.50
2019-02-27T06:21:36.125Z,5.50
2019-02-27T06:24:06.374Z,5.50
2019-02-27T06:26:40.533Z,5.50
2019-02-27T06:29:09.505Z,5.40
2019-02-27T06:31:39.546Z,5.40
2019-02-27T06:34:08.562Z,5.40
2019-02-27T06:36:41.888Z,5.30
2019-02-27T06:39:09.186Z,5.20
2019-02-27T06:41:39.877Z,5.20
2019-02-27T06:44:11.199Z,5.20
2019-02-27T06:46:54.727Z,5.30
2019-02-27T06:50:02.949Z,5.40
2019-02-27T06:52:34.830Z,5.50
2019-02-27T06:55:05.848Z,5.60
2019-02-27T06:57:35.090Z,5.70
2019-02-27T07:00:35.751Z,5.70
2019-02-27T07:03:07.524Z,5.80
2019-02-27T07:05:37.906Z,5.90
2019-02-27T07:08:07.541Z,5.90
2019-02-27T07:10:38.707Z,6.10
2019-02-27T07:13:11.774Z,6.20
2019-02-27T07:15:47.917Z,6.30
2019-02-27T07:18:14.158Z,6.40
2019-02-27T07:20:43.085Z,6.60
2019-02-27T07:23:12.864Z,6.70
2019-02-27T07:25:42.755Z,6.90
2019-02-27T07:28:12.075Z,6.90
2019-02-27T07:30:42.488Z,7.00
2019-02-27T07:33:14.316Z,7.10
2019-02-27T07:35:43.314Z,7.20
2019-02-27T07:38:13.828Z,7.30
2019-02-27T07:40:46.090Z,7.40
2019-02-27T07:43:15.194Z,7.60
2019-02-27T07:45:45.397Z,7.70
2019-02-27T07:48:17.377Z,7.80
2019-02-27T07:50:49.112Z,7.90
2019-02-27T07:53:17.661Z,8.00
2019-02-27T07:55:47.513Z,8.10
2019-02-27T07:58:16.742Z,8.20
2019-02-27T08:00:47.104Z,8.30
2019-02-27T08:03:16.474Z,8.30
2019-02-27T08:05:48.552Z,8.40
2019-02-27T08:08:17.573Z,8.50
2019-02-27T08:10:46.538Z,8.60
2019-02-27T08:13:15.966Z,8.70
2019-02-27T08:15:44.905Z,8.70
2019-02-27T08:18:13.900Z,8.80
2019-02-27T08:20:48.153Z,9.00
2019-02-27T08:23:17.176Z,9.00
2019-02-27T08:25:48.328Z,9.10
2019-02-27T08:28:18.822Z,9.10
2019-02-27T08:30:47.786Z,9.10
2019-02-27T08:33:16.818Z,9.20
2019-02-27T08:35:45.889Z,9.20
2019-02-27T08:38:30.370Z,9.20
2019-02-27T08:40:59.642Z,9.30
2019-02-27T08:43:30.446Z,9.20
2019-02-27T08:46:02.134Z,9.30
2019-02-27T08:48:30.073Z,9.40
2019-02-27T08:50:59.096Z,9.40
2019-02-27T08:53:28.113Z,9.50
2019-02-27T08:55:57.157Z,9.50
2019-02-27T08:58:26.747Z,9.60
2019-02-27T09:00:56.961Z,9.70
2019-02-27T09:03:25.861Z,9.80
2019-02-27T09:05:57.080Z,9.80
2019-02-27T09:08:31.859Z,9.90
2019-02-27T09:11:05.550Z,9.90
2019-02-27T09:13:32.590Z,10.00
2019-02-27T09:16:01.554Z,10.00
2019-02-27T09:18:33.308Z,10.00
2019-02-27T09:21:01.205Z,9.90
2019-02-27T09:23:30.290Z,10.10
2019-02-27T09:26:02.334Z,10.20
2019-02-27T09:28:30.087Z,10.30
2019-02-27T09:31:03.300Z,10.40
2019-02-27T09:33:38.347Z,10.40
2019-02-27T09:36:00.715Z,10.50
2019-02-27T09:38:29.770Z,10.60
2019-02-27T09:41:00.582Z,10.70
2019-02-27T09:43:32.668Z,10.80
2019-02-27T09:46:07.602Z,10.90
2019-02-27T09:48:37.022Z,10.90
2019-02-27T09:51:06.085Z,11.00
2019-02-27T09:53:39.824Z,11.10
2019-02-27T09:56:09.104Z,11.20
2019-02-27T09:58:39.152Z,11.20
2019-02-27T10:01:18.397Z,11.30
2019-02-27T10:03:49.006Z,11.40
2019-02-27T10:06:20.801Z,11.50
2019-02-27T10:08:52.825Z,11.60
2019-02-27T10:11:22.436Z,11.70
2019-02-27T10:13:51.610Z,11.80
2019-02-27T10:16:20.588Z,11.80
2019-02-27T10:18:54.788Z,11.80
2019-02-27T10:21:22.135Z,11.90
2019-02-27T10:23:52.360Z,12.00
2019-02-27T10:26:30.388Z,12.10
2019-02-27T10:29:01.665Z,12.20
2019-02-27T10:31:30.764Z,12.30
2019-02-27T10:34:00.444Z,12.40
2019-02-27T10:36:30.177Z,12.50
2019-02-27T10:38:59.386Z,12.60
2019-02-27T10:41:29.877Z,12.70
2019-02-27T10:43:58.912Z,12.70
2019-02-27T10:46:29.349Z,12.70
2019-02-27T10:48:58.383Z,12.70
2019-02-27T10:51:27.444Z,12.70
2019-02-27T10:53:56.406Z,12.60
2019-02-27T10:56:25.522Z,12.70
2019-02-27T10:58:56.785Z,12.90
2019-02-27T11:01:25.813Z,12.90
2019-02-27T11:03:54.849Z,12.70
2019-02-27T11:06:33.929Z,12.70
2019-02-27T11:09:04.485Z,12.90
2019-02-27T11:11:35.105Z,13.00
2019-02-27T11:14:05.595Z,13.00
2019-02-27T11:16:34.689Z,13.00
2019-02-27T11:19:04.042Z,13.10
2019-02-27T11:21:33.342Z,13.20
2019-02-27T11:24:02.460Z,13.40
2019-02-27T11:26:33.884Z,13.50
2019-02-27T11:29:03.416Z,13.60
2019-02-27T11:31:34.005Z,13.60
2019-02-27T11:34:05.142Z,13.60
2019-02-27T11:36:34.933Z,13.50
2019-02-27T11:39:05.952Z,13.60
2019-02-27T11:41:38.029Z,13.60
2019-02-27T11:44:07.176Z,13.70
2019-02-27T11:46:38.989Z,13.80
2019-02-27T11:49:11.737Z,13.90
2019-02-27T11:51:42.945Z,13.90
2019-02-27T11:54:12.050Z,13.90
2019-02-27T11:56:41.017Z,14.10
2019-02-27T11:59:12.559Z,14.10
2019-02-27T12:01:40.874Z,14.10
2019-02-27T12:04:09.800Z,14.20
2019-02-27T12:06:41.367Z,14.20
2019-02-27T12:09:18.467Z,14.20
2019-02-27T12:11:48.698Z,14.20
2019-02-27T12:14:22.779Z,14.10
2019-02-27T12:16:52.517Z,14.10
2019-02-27T12:19:25.074Z,14.10
2019-02-27T12:22:03.596Z,14.10
2019-02-27T12:24:33.923Z,14.20
2019-02-27T12:27:07.162Z,14.10
2019-02-27T12:29:35.922Z,14.20
2019-02-27T12:32:06.173Z,14.30
2019-02-27T12:34:37.068Z,14.40
2019-02-27T12:37:15.125Z,14.50
2019-02-27T12:39:36.774Z,14.50
2019-02-27T12:42:07.002Z,14.40
2019-02-27T12:44:38.911Z,14.50
2019-02-27T12:47:07.931Z,14.60
2019-02-27T12:49:37.491Z,14.60
2019-02-27T12:52:11.190Z,14.50
2019-02-27T12:54:37.334Z,14.50
2019-02-27T12:57:08.683Z,14.60
2019-02-27T12:59:40.059Z,14.60
2019-02-27T13:02:11.145Z,14.60
2019-02-27T13:04:40.131Z,14.60
2019-02-27T13:07:12.938Z,14.50
2019-02-27T13:09:41.979Z,14.70
2019-02-27T13:12:11.043Z,14.80
2019-02-27T13:14:39.970Z,14.70
2019-02-27T13:17:09.022Z,14.90
2019-02-27T13:19:38.498Z,14.90
2019-02-27T13:22:08.185Z,14.90
2019-02-27T13:24:37.294Z,14.90
2019-02-27T13:27:08.780Z,14.90
2019-02-27T13:29:37.046Z,15.00
2019-02-27T13:32:06.106Z,15.10
2019-02-27T13:34:35.050Z,15.00
2019-02-27T13:37:06.898Z,15.10
2019-02-27T13:39:35.353Z,15.10
2019-02-27T13:42:04.442Z,15.20
2019-02-27T13:44:35.215Z,15.30
2019-02-27T13:47:04.338Z,15.30
2019-02-27T13:49:36.554Z,15.30
2019-02-27T13:52:05.581Z,15.30
2019-02-27T13:54:40.335Z,15.30
2019-02-27T13:57:09.322Z,15.20
2019-02-27T13:59:38.561Z,15.20
2019-02-27T14:02:07.591Z,15.30
2019-02-27T14:04:36.686Z,15.30
2019-02-27T14:07:05.652Z,15.40
2019-02-27T14:09:34.605Z,15.50
2019-02-27T14:12:04.267Z,15.60
2019-02-27T14:14:33.437Z,15.60
2019-02-27T14:17:03.387Z,15.80
2019-02-27T14:19:36.586Z,15.80
2019-02-27T14:22:07.490Z,15.60
2019-02-27T14:24:38.221Z,15.60
2019-02-27T14:27:08.893Z,15.50
2019-02-27T14:29:42.364Z,15.40
2019-02-27T14:32:22.478Z,15.50
2019-02-27T14:34:51.511Z,15.60
2019-02-27T14:37:20.544Z,15.50
2019-02-27T14:39:53.793Z,15.50
2019-02-27T14:42:22.741Z,15.50
2019-02-27T14:44:51.878Z,15.50
2019-02-27T14:47:21.866Z,15.40
2019-02-27T14:49:50.924Z,15.30
2019-02-27T14:52:19.885Z,15.40
2019-02-27T14:54:48.889Z,15.60
2019-02-27T14:57:17.953Z,15.50
2019-02-27T14:59:55.857Z,15.50
2019-02-27T15:02:26.997Z,15.40
2019-02-27T15:04:55.998Z,15.30
2019-02-27T15:07:24.934Z,15.30
2019-02-27T15:09:57.125Z,15.30
2019-02-27T15:12:26.156Z,15.20
2019-02-27T15:14:55.209Z,15.20
2019-02-27T15:17:24.157Z,15.30
2019-02-27T15:19:54.195Z,15.30
2019-02-27T15:22:23.213Z,15.30
2019-02-27T15:24:55.431Z,15.30
2019-02-27T15:27:24.989Z,15.30
2019-02-27T15:29:54.629Z,15.30
2019-02-27T15:32:26.910Z,15.20
2019-02-27T15:34:54.615Z,15.20
2019-02-27T15:37:24.667Z,15.20
2019-02-27T15:39:55.779Z,15.30
2019-02-27T15:42:25.795Z,15.20
2019-02-27T15:44:54.748Z,15.10
2019-02-27T15:47:27.012Z,15.10
2019-02-27T15:49:57.562Z,15.00
2019-02-27T15:52:26.522Z,14.90
2019-02-27T15:54:55.552Z,14.90
2019-02-27T15:57:26.139Z,14.70
2019-02-27T15:59:55.106Z,14.60
2019-02-27T16:02:30.422Z,14.40
2019-02-27T16:05:05.839Z,14.40
2019-02-27T16:07:48.471Z,14.40
2019-02-27T16:10:15.912Z,14.10
2019-02-27T16:12:45.017Z,14.00
2019-02-27T16:15:16.893Z,13.80
2019-02-27T16:17:52.493Z,13.60
2019-02-27T16:20:24.978Z,13.50
2019-02-27T16:23:21.286Z,13.60
2019-02-27T16:25:56.367Z,13.40
2019-02-27T16:28:24.748Z,13.20
2019-02-27T16:30:54.811Z,13.10
2019-02-27T16:33:29.077Z,12.90
2019-02-27T16:35:58.108Z,12.70
2019-02-27T16:38:28.334Z,12.60
2019-02-27T16:40:58.000Z,12.30
2019-02-27T16:43:26.997Z,12.00
2019-02-27T16:46:07.705Z,11.80
2019-02-27T16:48:38.671Z,11.60
2019-02-27T16:51:19.956Z,11.40
2019-02-27T16:53:52.682Z,11.30
2019-02-27T16:56:21.859Z,11.10
2019-02-27T16:58:51.095Z,11.00
2019-02-27T17:01:21.175Z,10.90
2019-02-27T17:03:59.462Z,10.70
2019-02-27T17:06:22.068Z,10.60
2019-02-27T17:08:51.173Z,10.50
2019-02-27T17:11:32.533Z,10.40
2019-02-27T17:14:04.274Z,10.40
2019-02-27T17:16:44.526Z,10.30
2019-02-27T17:19:11.642Z,10.20
2019-02-27T17:21:41.738Z,10.20
2019-02-27T17:24:22.009Z,10.10
2019-02-27T17:26:51.141Z,10.00
2019-02-27T17:29:31.771Z,10.00
2019-02-27T17:32:00.906Z,10.00
2019-02-27T17:34:31.915Z,9.90
2019-02-27T17:37:03.613Z,9.70
2019-02-27T17:39:41.023Z,9.60
2019-02-27T17:42:10.119Z,9.60
2019-02-27T17:44:39.246Z,9.50
2019-02-27T17:47:14.101Z,9.40
2019-02-27T17:49:43.150Z,9.40
2019-02-27T17:52:15.514Z,9.30
2019-02-27T17:54:44.477Z,9.20
2019-02-27T17:57:24.192Z,9.30
2019-02-27T18:00:12.890Z,9.30
2019-02-27T18:02:48.366Z,9.30
2019-02-27T18:05:17.407Z,9.20
2019-02-27T18:07:54.365Z,9.20
2019-02-27T18:10:37.275Z,9.10
2019-02-27T18:13:09.438Z,9.00
2019-02-27T18:15:44.702Z,8.90
2019-02-27T18:18:14.765Z,8.80
2019-02-27T18:20:43.839Z,8.80
2019-02-27T18:23:12.891Z,8.80
2019-02-27T18:25:44.168Z,8.70
2019-02-27T18:28:15.763Z,8.70
2019-02-27T18:30:45.463Z,8.70
2019-02-27T18:33:24.110Z,8.70
2019-02-27T18:35:57.582Z,8.70
2019-02-27T18:38:27.820Z,8.60
2019-02-27T18:41:48.931Z,8.60
2019-02-27T18:44:18.119Z,8.60
2019-02-27T18:46:47.262Z,8.50
2019-02-27T18:49:18.521Z,8.50
2019-02-27T18:51:50.264Z,8.50
2019-02-27T18:54:31.520Z,8.50
2019-02-27T18:57:00.534Z,8.50
2019-02-27T18:59:30.994Z,8.40
2019-02-27T19:02:07.737Z,8.50
2019-02-27T19:04:39.050Z,8.40
2019-02-27T19:07:13.657Z,8.40
2019-02-27T19:09:49.547Z,8.30
2019-02-27T19:12:29.713Z,8.40
2019-02-27T19:14:58.739Z,8.50
2019-02-27T19:17:31.414Z,8.50
2019-02-27T19:19:58.424Z,8.70
2019-02-27T19:22:28.610Z,8.70
2019-02-27T19:25:00.125Z,8.70
2019-02-27T19:27:28.629Z,8.70
2019-02-27T19:29:57.812Z,8.70
2019-02-27T19:32:29.049Z,8.70
2019-02-27T19:34:58.296Z,8.70
2019-02-27T19:37:27.576Z,8.60
2019-02-27T19:39:57.116Z,8.60
2019-02-27T19:42:26.322Z,8.50
2019-02-27T19:44:55.382Z,8.50
2019-02-27T19:47:24.465Z,8.40
2019-02-27T19:49:54.362Z,8.40
2019-02-27T19:52:23.425Z,8.40
2019-02-27T19:54:52.931Z,8.40
2019-02-27T19:57:23.165Z,8.20
2019-02-27T20:00:00.521Z,8.20
2019-02-27T20:02:37.723Z,8.10
2019-02-27T20:05:07.329Z,8.10
2019-02-27T20:07:39.182Z,8.10
2019-02-27T20:10:08.902Z,8.00
2019-02-27T20:12:52.914Z,8.00
2019-02-27T20:15:18.550Z,8.00
2019-02-27T20:17:47.966Z,8.00
2019-02-27T20:20:18.096Z,8.00
2019-02-27T20:22:50.342Z,8.00
2019-02-27T20:25:18.610Z,8.00
2019-02-27T20:27:48.883Z,8.00
2019-02-27T20:30:20.049Z,8.00
2019-02-27T20:32:49.150Z,8.00
2019-02-27T20:35:20.788Z,8.00
2019-02-27T20:37:54.145Z,7.90
2019-02-27T20:40:23.181Z,7.90
2019-02-27T20:42:55.094Z,7.90
2019-02-27T20:45:26.697Z,7.90
2019-02-27T20:48:01.724Z,7.90
2019-02-27T20:50:35.776Z,7.90
2019-02-27T20:53:05.522Z,8.00
2019-02-27T20:55:34.634Z,8.00
2019-02-27T20:58:03.756Z,8.10
2019-02-27T21:00:36.115Z,8.10
2019-02-27T21:03:03.629Z,8.10
2019-02-27T21:05:32.699Z,8.10
2019-02-27T21:08:02.520Z,8.10
2019-02-27T21:10:32.873Z,8.10
2019-02-27T21:13:01.989Z,8.20
2019-02-27T21:15:33.559Z,8.30
2019-02-27T21:18:02.738Z,8.30
2019-02-27T21:20:33.278Z,8.30
2019-02-27T21:23:03.574Z,8.40
2019-02-27T21:25:32.734Z,8.60
2019-02-27T21:28:06.751Z,8.70
2019-02-27T21:30:32.551Z,8.80
2019-02-27T21:33:02.629Z,8.80
2019-02-27T21:35:31.763Z,9.00
2019-02-27T21:38:01.474Z,9.10
2019-02-27T21:40:33.353Z,9.20
2019-02-27T21:43:01.827Z,9.30
2019-02-27T21:45:30.942Z,9.40
2019-02-27T21:48:05.846Z,9.30
2019-02-27T21:50:39.931Z,9.20
2019-02-27T21:53:08.857Z,9.10
2019-02-27T21:55:37.808Z,8.90
2019-02-27T21:58:07.889Z,8.90
2019-02-27T22:00:37.950Z,8.90
2019-02-27T22:03:08.032Z,9.00
2019-02-27T22:05:42.765Z,8.90
2019-02-27T22:08:09.024Z,8.90
2019-02-27T22:10:38.150Z,8.90
2019-02-27T22:13:10.469Z,8.90
2019-02-27T22:15:38.085Z,8.90
2019-02-27T22:18:08.324Z,9.10
2019-02-27T22:20:38.016Z,9.10
2019-02-27T22:23:08.070Z,9.00
2019-02-27T22:25:38.170Z,9.00
2019-02-27T22:28:09.301Z,9.10
2019-02-27T22:30:38.608Z,9.10
2019-02-27T22:33:07.685Z,9.10
2019-02-27T22:35:37.962Z,9.10
2019-02-27T22:38:07.625Z,9.10
2019-02-27T22:40:38.002Z,9.10
2019-02-27T22:43:08.462Z,9.10
2019-02-27T22:45:41.983Z,9.10
2019-02-27T22:48:15.043Z,9.20
2019-02-27T22:50:45.180Z,9.20
2019-02-27T22:53:14.500Z,9.20
2019-02-27T22:55:45.610Z,9.30
2019-02-27T22:58:14.710Z,9.40
2019-02-27T23:01:04.773Z,9.40
2019-02-27T23:03:47.206Z,9.50
2019-02-27T23:06:18.345Z,9.60
2019-02-27T23:08:54.422Z,9.50
2019-02-27T23:11:26.171Z,9.40
2019-02-27T23:13:55.282Z,9.40
2019-02-27T23:16:25.370Z,9.50
2019-02-27T23:18:54.465Z,9.40
2019-02-27T23:21:27.353Z,9.40
2019-02-27T23:23:56.564Z,9.30
2019-02-27T23:26:46.736Z,9.20
2019-02-27T23:29:16.881Z,9.20
2019-02-27T23:31:45.942Z,9.10
2019-02-27T23:34:15.084Z,9.00
2019-02-27T23:36:44.181Z,9.00
2019-02-27T23:39:13.249Z,8.90
2019-02-27T23:41:42.265Z,8.80
2019-02-27T23:44:12.367Z,8.80
2019-02-27T23:46:49.758Z,8.70
2019-02-27T23:49:13.306Z,8.70
2019-02-27T23:51:42.297Z,8.60
2019-02-27T23:54:19.553Z,8.50
2019-02-27T23:56:52.981Z,8.40
2019-02-27T23:59:33.005Z,8.30
